Time;durP1;ratioP1;P1;durP2;ratioP2;P2;SDS_P1;SDS_P2;PMS_P1;PMS_P2;Temp;Humidity;BMP_temperature;BMP_pressure;BME280_temperature;BME280_humidity;BME280_pressure;Samples;Min_cycle;Max_cycle;Signal;HPM_P1;HPM_P2
2022/07/14 00:01:06;;;;;;;2.50;0.73;;;;;;;21.44;45.26;100118.16;4410173;32;33960;-85
2022/07/14 00:03:35;;;;;;;4.30;0.93;;;;;;;21.36;45.55;100115.25;4403860;32;32635;-85
2022/07/14 00:06:03;;;;;;;2.80;0.68;;;;;;;21.35;45.63;100124.28;4411250;32;33464;-85
2022/07/14 00:08:31;;;;;;;1.92;1.00;;;;;;;21.21;45.89;100123.56;4400845;32;33738;-85
2022/07/14 00:10:59;;;;;;;1.73;0.75;;;;;;;21.26;45.85;100117.81;4420558;32;112829;-85
2022/07/14 00:13:27;;;;;;;1.77;0.62;;;;;;;21.15;46.11;100121.41;4395248;32;33205;-85
2022/07/14 00:15:55;;;;;;;4.50;1.12;;;;;;;21.14;46.13;100127.75;4406154;32;33101;-86
2022/07/14 00:18:24;;;;;;;2.53;0.90;;;;;;;21.04;46.02;100125.97;4398641;32;33636;-87
2022/07/14 00:20:52;;;;;;;4.35;1.10;;;;;;;20.91;46.29;100128.78;4423718;32;32886;-86
2022/07/14 00:23:21;;;;;;;0.73;0.70;;;;;;;21.01;45.78;100124.38;4405990;32;34654;-86
2022/07/14 00:25:50;;;;;;;3.97;0.98;;;;;;;21.07;45.76;100120.31;4415410;32;33108;-87
2022/07/14 00:28:18;;;;;;;2.35;1.05;;;;;;;21.04;46.00;100120.59;4405648;32;31750;-87
2022/07/14 00:30:50;;;;;;;1.85;0.90;;;;;;;20.98;46.13;100124.59;4422087;32;33162;-87
2022/07/14 00:33:18;;;;;;;1.17;1.00;;;;;;;20.59;46.98;100121.50;4391282;32;31942;-87
2022/07/14 00:35:47;;;;;;;2.45;0.82;;;;;;;20.69;46.69;100122.47;4400146;32;33284;-87
2022/07/14 00:38:15;;;;;;;3.42;1.10;;;;;;;20.59;46.96;100121.50;4400217;32;33450;-87
2022/07/14 00:40:44;;;;;;;2.03;0.88;;;;;;;20.60;47.06;100125.03;4402311;32;32317;-87
2022/07/14 00:43:14;;;;;;;0.90;0.70;;;;;;;20.68;47.04;100119.91;4407881;32;34616;-86
2022/07/14 00:45:43;;;;;;;1.85;1.10;;;;;;;20.68;47.20;100119.91;4407354;32;34188;-87
2022/07/14 00:48:16;;;;;;;1.33;0.88;;;;;;;20.70;47.13;100126.03;4390368;32;33806;-87
2022/07/14 00:50:46;;;;;;;2.28;1.15;;;;;;;20.68;47.38;100120.75;4389629;32;31715;-87
2022/07/14 00:53:17;;;;;;;1.00;0.73;;;;;;;20.67;47.20;100129.78;4410583;32;33864;-87
2022/07/14 00:55:46;;;;;;;3.03;0.93;;;;;;;20.62;47.43;100121.25;4381950;32;32291;-86
2022/07/14 00:58:15;;;;;;;1.80;0.82;;;;;;;20.53;47.46;100126.50;4403146;32;34081;-86
2022/07/14 01:00:44;;;;;;;3.87;1.15;;;;;;;20.62;47.20;100112.38;4402797;32;33560;-87
2022/07/14 01:03:13;;;;;;;0.93;0.82;;;;;;;20.65;46.95;100125.50;4398253;32;32518;-88
2022/07/14 01:05:42;;;;;;;1.15;0.75;;;;;;;20.38;47.55;100123.19;4383877;32;33691;-88
2022/07/14 01:08:10;;;;;;;2.78;0.80;;;;;;;20.06;48.40;100123.88;4393226;32;32689;-88
2022/07/14 01:10:40;;;;;;;0.95;0.70;;;;;;;20.03;48.16;100120.59;4397121;32;32900;-88
2022/07/14 01:13:08;;;;;;;1.62;0.80;;;;;;;20.23;47.32;100124.41;4397713;32;33281;-87
2022/07/14 01:15:38;;;;;;;1.58;0.85;;;;;;;20.33;47.60;100128.06;4384501;32;33555;-88
2022/07/14 01:18:09;;;;;;;3.28;0.88;;;;;;;20.18;47.59;100127.44;4393389;32;33937;-88
2022/07/14 01:20:38;;;;;;;2.30;0.88;;;;;;;20.19;47.42;100124.66;4405068;32;33637;-86
2022/07/14 01:23:06;;;;;;;0.93;0.50;;;;;;;20.28;47.14;100124.91;4424604;32;33990;-87
2022/07/14 01:25:34;;;;;;;1.48;1.05;;;;;;;20.10;47.77;100135.22;4401410;32;33685;-87
2022/07/14 01:28:04;;;;;;;0.62;0.50;;;;;;;20.28;46.90;100124.91;4409576;32;33739;-86
2022/07/14 01:30:33;;;;;;;5.65;0.93;;;;;;;20.11;47.47;100127.06;4418793;32;33407;-86
2022/07/14 01:33:02;;;;;;;1.75;0.82;;;;;;;19.98;47.32;100120.09;4398975;32;32319;-87
2022/07/14 01:35:30;;;;;;;1.52;0.82;;;;;;;20.14;47.01;100125.97;4407590;32;33181;-87
2022/07/14 01:37:58;;;;;;;0.75;0.70;;;;;;;20.23;46.68;100124.41;4400914;32;34174;-86
2022/07/14 01:40:26;;;;;;;0.77;0.62;;;;;;;20.16;46.84;100119.50;4402304;32;34388;-87
2022/07/14 01:42:55;;;;;;;0.57;0.40;;;;;;;20.32;46.52;100118.28;4407224;32;34693;-87
2022/07/14 01:45:24;;;;;;;2.50;0.75;;;;;;;20.22;46.88;100118.16;4404508;32;31718;-87
2022/07/14 01:47:52;;;;;;;0.73;0.70;;;;;;;20.36;46.53;100117.94;4417383;32;34102;-86
2022/07/14 01:50:21;;;;;;;3.37;0.82;;;;;;;20.44;46.39;100117.34;4406954;32;33219;-86
2022/07/14 01:52:49;;;;;;;3.97;0.68;;;;;;;20.42;46.62;100119.28;4396351;32;117490;-86
2022/07/14 01:55:19;;;;;;;1.20;0.50;;;;;;;20.32;47.01;100115.63;4413204;32;33963;-86
2022/07/14 01:57:47;;;;;;;0.55;0.50;;;;;;;20.46;46.87;100116.25;4401195;32;32786;-86
2022/07/14 02:00:17;;;;;;;4.37;1.00;;;;;;;20.58;46.44;100103.69;4394394;32;31956;-86
2022/07/14 02:02:47;;;;;;;4.20;0.80;;;;;;;20.71;46.16;100114.31;4401301;32;33448;-86
2022/07/14 02:05:15;;;;;;;0.60;0.60;;;;;;;20.73;46.21;100106.97;4400086;32;33023;-86
2022/07/14 02:07:44;;;;;;;3.12;0.70;;;;;;;20.59;46.60;100108.09;4388420;32;33854;-87
2022/07/14 02:13:01;;;;;;;1.37;0.50;;;;;;;20.82;45.87;100116.97;4395060;32;35271;-86
2022/07/14 02:15:29;;;;;;;2.67;0.57;;;;;;;20.82;45.94;100114.28;4399803;32;33844;-86
2022/07/14 02:17:57;;;;;;;3.58;0.70;;;;;;;20.79;45.84;100113.66;4407216;32;34158;-86
2022/07/14 02:20:26;;;;;;;2.05;0.65;;;;;;;20.90;45.86;100106.47;4401717;32;32950;-85
2022/07/14 02:22:54;;;;;;;1.02;0.60;;;;;;;20.79;46.28;100113.66;4389119;32;33688;-86
2022/07/14 02:25:26;;;;;;;1.73;0.70;;;;;;;20.74;46.00;100113.19;4412691;32;33257;-86
2022/07/14 02:27:54;;;;;;;1.67;0.60;;;;;;;20.64;45.93;100113.94;4400719;32;34794;-86
2022/07/14 02:30:22;;;;;;;0.65;0.65;;;;;;;20.78;45.57;100109.28;4405109;32;32662;-87
2022/07/14 02:32:50;;;;;;;1.10;0.77;;;;;;;20.87;45.16;100114.75;4397618;32;33521;-86
2022/07/14 02:35:23;;;;;;;0.73;0.60;;;;;;;20.84;45.44;100122.19;4417111;32;34048;-87
2022/07/14 02:38:18;;;;;;;10.30;1.20;;;;;;;20.82;45.66;100118.78;4401129;32;33427;-87
2022/07/14 02:40:46;;;;;;;0.75;0.70;;;;;;;20.85;45.63;100121.25;4414638;32;34071;-86
2022/07/14 02:43:15;;;;;;;3.67;0.80;;;;;;;20.55;46.48;100125.41;4398827;32;33028;-86
2022/07/14 02:45:44;;;;;;;1.05;0.80;;;;;;;20.63;46.24;100114.91;4401736;32;33884;-86
2022/07/14 02:48:12;;;;;;;1.30;0.90;;;;;;;20.54;46.63;100131.75;4393358;32;33004;-87
2022/07/14 02:50:43;;;;;;;2.97;1.00;;;;;;;20.50;46.74;100122.22;4386412;32;32260;-86
2022/07/14 02:53:11;;;;;;;2.20;0.90;;;;;;;20.50;46.90;100124.91;4405753;32;32731;-86
2022/07/14 02:55:40;;;;;;;4.45;1.00;;;;;;;20.41;47.70;100128.28;4400456;32;33725;-87
2022/07/14 02:58:09;;;;;;;4.10;0.82;;;;;;;20.34;47.79;100133.31;4391796;32;34185;-87
2022/07/14 03:00:37;;;;;;;5.70;1.15;;;;;;;20.49;47.46;100133.94;4379428;32;33412;-86
2022/07/14 03:03:06;;;;;;;2.70;1.00;;;;;;;20.40;47.77;100131.97;4393150;32;34004;-86
2022/07/14 03:05:34;;;;;;;3.15;0.77;;;;;;;20.50;47.74;100132.09;4399116;32;34455;-86
2022/07/14 03:08:03;;;;;;;1.85;0.88;;;;;;;20.49;47.75;100133.94;4399048;32;32026;-88
2022/07/14 03:10:31;;;;;;;2.90;1.00;;;;;;;20.45;48.23;100141.34;4369858;32;33958;-87
2022/07/14 03:13:01;;;;;;;1.67;0.70;;;;;;;20.40;48.47;100137.31;4381134;32;32320;-86
2022/07/14 03:15:30;;;;;;;1.20;1.10;;;;;;;20.40;48.62;100137.31;4400327;32;32907;-87
2022/07/14 03:18:01;;;;;;;1.13;1.03;;;;;;;20.33;48.68;100136.13;4385744;32;34620;-87
2022/07/14 03:20:31;;;;;;;3.85;1.25;;;;;;;20.40;48.46;100137.31;4380904;32;33452;-87
2022/07/14 03:22:59;;;;;;;1.33;1.00;;;;;;;20.22;48.95;100134.25;4380207;32;33333;-86
2022/07/14 03:25:28;;;;;;;2.53;2.05;;;;;;;20.41;48.51;100134.53;4380506;32;34150;-86
2022/07/14 03:27:57;;;;;;;1.70;1.10;;;;;;;20.37;48.35;100132.22;4398512;32;33907;-86
2022/07/14 03:30:25;;;;;;;3.87;1.50;;;;;;;20.21;48.84;100133.41;4391545;32;32799;-86
2022/07/14 03:32:53;;;;;;;3.35;1.23;;;;;;;20.32;48.88;100134.38;4397126;32;32827;-86
2022/07/14 03:35:21;;;;;;;1.77;1.30;;;;;;;20.25;49.34;100133.16;4392499;32;32504;-86
2022/07/14 03:37:49;;;;;;;3.35;1.30;;;;;;;20.42;48.85;100138.91;4399825;32;33019;-86
2022/07/14 03:40:37;;;;;;;1.37;1.15;;;;;;;20.44;48.87;100136.09;4396320;32;31853;-87
2022/07/14 03:43:04;;;;;;;1.67;1.10;;;;;;;20.38;49.48;100136.59;4384880;32;32146;-87
2022/07/14 03:45:33;;;;;;;4.37;1.50;;;;;;;20.51;49.37;100134.69;4395211;32;33835;-87
2022/07/14 03:48:07;;;;;;;4.55;1.85;;;;;;;20.39;49.85;100133.78;4385111;32;32482;-87
2022/07/14 03:50:36;;;;;;;2.40;1.80;;;;;;;20.37;49.16;100142.94;4410380;32;33397;-87
2022/07/14 03:53:08;;;;;;;8.13;1.42;;;;;;;20.64;48.61;100143.44;4373297;32;32400;-87
2022/07/14 03:55:47;;;;;;;1.50;1.17;;;;;;;20.52;49.50;100141.75;4399480;32;34230;-87
2022/07/14 03:58:24;;;;;;;2.12;1.52;;;;;;;20.55;50.45;100146.84;4380195;32;32426;-87
2022/07/14 04:00:55;;;;;;;7.05;2.12;;;;;;;20.89;49.56;100139.66;4381577;32;32753;-87
2022/07/14 04:03:24;;;;;;;4.43;1.48;;;;;;;20.83;49.65;100141.97;4380484;32;33710;-86
2022/07/14 04:05:53;;;;;;;4.30;1.60;;;;;;;20.91;49.44;100136.84;4396960;32;33283;-86
2022/07/14 04:08:23;;;;;;;4.65;1.45;;;;;;;21.11;48.44;100144.09;4401608;32;33069;-87
2022/07/14 04:10:51;;;;;;;4.03;1.33;;;;;;;21.25;47.85;100142.13;4411011;32;33183;-86
2022/07/14 04:13:20;;;;;;;4.28;1.62;;;;;;;21.40;48.81;100136.34;4400975;32;33545;-87
2022/07/14 04:15:49;;;;;;;4.70;1.65;;;;;;;21.63;49.13;100137.09;4401470;32;33907;-87
2022/07/14 04:18:19;;;;;;;3.50;1.35;;;;;;;21.69;48.70;100133.03;4400242;32;33975;-87
2022/07/14 04:20:50;;;;;;;3.42;1.37;;;;;;;21.68;47.64;100132.19;4395608;32;32440;-87
2022/07/14 04:23:19;;;;;;;2.58;1.58;;;;;;;21.71;47.91;100126.56;4405120;32;32271;-87
2022/07/14 04:25:48;;;;;;;1.75;1.30;;;;;;;21.84;47.95;100125.50;4385429;32;32802;-87
2022/07/14 04:28:17;;;;;;;6.45;1.70;;;;;;;22.21;48.87;100136.66;4382226;32;32612;-87
2022/07/14 04:30:46;;;;;;;3.25;1.75;;;;;;;22.38;49.13;100129.84;4375100;32;33360;-87
2022/07/14 04:33:19;;;;;;;3.70;1.83;;;;;;;22.42;48.55;100132.13;4400906;32;33546;-87
2022/07/14 04:35:49;;;;;;;7.22;1.83;;;;;;;22.66;47.49;100129.09;4392270;32;34085;-86
2022/07/14 04:38:17;;;;;;;6.28;1.65;;;;;;;22.84;47.19;100121.22;4399202;32;33458;-87
2022/07/14 04:40:50;;;;;;;5.72;2.05;;;;;;;23.08;46.67;100120.88;4403440;32;33489;-87
2022/07/14 04:43:20;;;;;;;6.75;1.95;;;;;;;23.47;46.83;100123.59;4402605;32;33839;-87
2022/07/14 04:45:48;;;;;;;7.45;2.30;;;;;;;23.66;47.27;100117.38;4392591;32;33621;-87
2022/07/14 04:48:16;;;;;;;4.57;1.85;;;;;;;23.76;47.09;100116.38;4399139;32;32410;-87
2022/07/14 04:53:36;;;;;;;4.20;2.10;;;;;;;24.23;45.36;100115.56;4397657;32;32586;-87
2022/07/14 04:56:06;;;;;;;4.50;1.80;;;;;;;24.10;46.12;100115.88;4391111;32;33010;-87
2022/07/14 04:58:37;;;;;;;8.13;1.92;;;;;;;24.12;46.78;100116.59;4395581;32;33608;-87
2022/07/14 05:01:06;;;;;;;5.65;1.90;;;;;;;24.13;46.91;100118.28;4404437;32;33441;-88
2022/07/14 05:03:36;;;;;;;18.60;2.80;;;;;;;24.01;46.80;100119.44;4378491;32;32670;-87
2022/07/14 05:06:04;;;;;;;12.57;2.12;;;;;;;23.86;46.42;100120.91;4388566;32;34193;-88
2022/07/14 05:08:35;;;;;;;12.52;2.17;;;;;;;23.68;46.64;100121.63;4391393;32;34671;-88
2022/07/14 05:11:05;;;;;;;5.15;1.30;;;;;;;23.88;46.33;100117.06;4396545;32;31698;-88
2022/07/14 05:13:35;;;;;;;5.47;2.15;;;;;;;23.98;45.47;100111.66;4391642;32;33737;-88
2022/07/14 05:16:04;;;;;;;7.40;1.98;;;;;;;24.51;47.26;100120.03;4391522;32;32781;-88
2022/07/14 05:18:32;;;;;;;10.95;2.70;;;;;;;24.69;45.88;100120.09;4389724;32;33610;-87
2022/07/14 05:21:08;;;;;;;22.80;3.60;;;;;;;24.95;46.79;100116.66;4377553;32;31965;-87
2022/07/14 05:23:47;;;;;;;7.75;2.40;;;;;;;25.15;46.07;100123.66;4366031;32;33013;-87
2022/07/14 05:26:21;;;;;;;4.10;1.27;;;;;;;25.33;44.64;100129.09;4397754;32;33006;-87
2022/07/14 05:28:51;;;;;;;8.02;1.67;;;;;;;25.52;42.35;100109.16;4378485;32;33352;-87
2022/07/14 05:31:20;;;;;;;3.17;1.30;;;;;;;25.73;41.67;100119.63;4380019;32;31914;-88
2022/07/14 05:33:49;;;;;;;2.30;0.80;;;;;;;25.86;40.53;100119.28;4381463;32;32711;-86
2022/07/14 05:36:19;;;;;;;1.77;0.95;;;;;;;26.10;39.89;100115.88;4391553;32;33836;-86
2022/07/14 05:38:48;;;;;;;3.92;0.80;;;;;;;26.47;39.40;100112.91;4405674;32;34205;-86
2022/07/14 05:41:19;;;;;;;5.93;1.30;;;;;;;26.59;39.13;100108.06;4380425;32;33225;-86
2022/07/14 05:43:48;;;;;;;1.00;0.95;;;;;;;26.92;37.24;100109.91;4379933;32;32879;-86
2022/07/14 05:46:17;;;;;;;2.05;0.75;;;;;;;27.18;36.95;100104.38;4390665;32;33811;-86
2022/07/14 05:48:49;;;;;;;1.20;0.77;;;;;;;27.38;35.91;100109.50;4392106;32;32987;-86
2022/07/14 05:51:20;;;;;;;1.65;0.90;;;;;;;27.67;34.91;100098.13;4392619;32;32528;-86
2022/07/14 05:53:51;;;;;;;1.58;0.93;;;;;;;27.71;35.34;100100.38;4387672;32;32660;-86
2022/07/14 05:56:21;;;;;;;1.77;1.05;;;;;;;27.92;35.48;100096.31;4380075;32;33071;-86
2022/07/14 05:58:52;;;;;;;3.45;0.85;;;;;;;28.03;35.33;100096.78;4394621;32;33083;-86
2022/07/14 06:04:01;;;;;;;1.40;0.77;;;;;;;28.22;32.90;100092.84;4402396;32;33208;-86
2022/07/14 06:06:33;;;;;;;1.58;0.98;;;;;;;28.49;34.39;100088.03;4385931;32;33686;-87
2022/07/14 06:09:04;;;;;;;6.00;1.02;;;;;;;28.68;32.64;100086.78;4378528;32;33578;-86
2022/07/14 06:11:34;;;;;;;3.55;0.82;;;;;;;28.82;32.12;100086.03;4396212;32;33843;-86
2022/07/14 06:14:08;;;;;;;1.33;0.65;;;;;;;28.81;33.02;100082.44;4388919;32;35079;-86
2022/07/14 06:16:43;;;;;;;1.10;1.00;;;;;;;28.82;32.30;100083.31;4386062;32;33746;-86
2022/07/14 06:19:13;;;;;;;1.08;0.90;;;;;;;28.87;33.65;100088.22;4384916;32;30244;-86
2022/07/14 06:21:43;;;;;;;1.33;0.80;;;;;;;29.07;32.43;100081.31;4388675;32;32295;-86
2022/07/14 06:24:14;;;;;;;1.65;1.10;;;;;;;29.16;33.49;100084.81;4397441;32;33567;-86
2022/07/14 06:26:44;;;;;;;6.20;1.10;;;;;;;29.14;32.56;100081.44;4373337;32;33584;-85
2022/07/14 06:29:15;;;;;;;1.50;0.98;;;;;;;29.18;31.50;100078.16;4374811;32;33775;-86
2022/07/14 06:31:51;;;;;;;3.03;0.70;;;;;;;29.33;31.93;100086.38;4392880;32;32207;-86
2022/07/14 06:34:19;;;;;;;2.45;1.35;;;;;;;29.49;31.49;100080.00;4400632;32;32643;-86
2022/07/14 06:36:50;;;;;;;5.53;0.80;;;;;;;29.66;31.08;100073.38;4379924;32;33615;-86
2022/07/14 06:39:17;;;;;;;2.40;0.70;;;;;;;29.66;30.67;100073.38;4357501;32;32965;-86
2022/07/14 06:41:46;;;;;;;0.93;0.62;;;;;;;29.93;30.26;100068.38;4392909;32;32805;-86
2022/07/14 06:44:21;;;;;;;1.98;0.68;;;;;;;29.85;29.64;100064.69;4391940;32;32775;-86
2022/07/14 06:46:54;;;;;;;1.67;0.80;;;;;;;29.72;28.91;100069.09;4385419;32;32588;-86
2022/07/14 06:49:23;;;;;;;1.42;0.70;;;;;;;30.14;30.17;100073.97;4392252;32;33719;-86
2022/07/14 06:51:52;;;;;;;3.50;0.60;;;;;;;30.45;28.90;100065.59;4395053;32;33682;-86
2022/07/14 06:54:31;;;;;;;1.30;0.90;;;;;;;30.69;26.56;100064.44;4385782;32;32671;-85
2022/07/14 06:57:00;;;;;;;2.50;0.50;;;;;;;30.93;26.15;100063.28;4408132;32;34228;-85
2022/07/14 06:59:32;;;;;;;1.70;0.55;;;;;;;31.32;25.55;100072.94;4381800;32;32738;-85
2022/07/14 07:02:03;;;;;;;0.50;0.50;;;;;;;31.48;25.55;100066.41;4387087;32;31856;-85
2022/07/14 07:04:33;;;;;;;1.17;0.65;;;;;;;31.56;25.46;100058.88;4398519;32;33644;-85
2022/07/14 07:07:06;;;;;;;0.43;0.43;;;;;;;31.81;25.74;100064.78;4397932;32;32696;-87
2022/07/14 07:09:35;;;;;;;1.08;0.70;;;;;;;31.73;25.24;100064.91;4403544;32;33482;-87
2022/07/14 07:12:06;;;;;;;3.15;0.80;;;;;;;32.11;25.42;100062.69;4405199;32;32477;-87
2022/07/14 07:14:35;;;;;;;3.92;0.65;;;;;;;31.95;23.68;100067.63;4400396;32;32037;-87
2022/07/14 07:17:09;;;;;;;0.90;0.60;;;;;;;31.67;24.60;100063.00;4401148;32;33240;-87
2022/07/14 07:19:38;;;;;;;1.50;0.82;;;;;;;31.69;24.56;100060.87;4403830;32;34308;-86
2022/07/14 07:24:55;;;;;;;1.52;0.70;;;;;;;31.64;24.91;100055.19;4415962;32;34244;-86
2022/07/14 07:27:24;;;;;;;4.78;1.00;;;;;;;31.64;24.94;100049.72;4391132;32;33046;-84
2022/07/14 07:29:55;;;;;;;1.52;0.90;;;;;;;31.43;25.17;100047.00;4407141;32;33134;-85
2022/07/14 07:32:24;;;;;;;1.25;0.80;;;;;;;31.63;24.81;100050.78;4415943;32;31428;-86
2022/07/14 07:34:52;;;;;;;2.78;1.00;;;;;;;32.23;25.18;100043.00;4394120;32;33550;-85
2022/07/14 07:37:26;;;;;;;1.55;0.70;;;;;;;32.21;23.90;100043.22;4391812;32;32698;-85
2022/07/14 07:39:58;;;;;;;1.67;0.73;;;;;;;32.24;24.16;100051.00;4416251;32;33643;-86
2022/07/14 07:42:28;;;;;;;1.42;0.90;;;;;;;31.94;24.88;100044.94;4395693;32;33186;-85
2022/07/14 07:45:06;;;;;;;1.25;0.80;;;;;;;32.09;24.77;100042.06;4404829;32;34117;-85
2022/07/14 07:47:40;;;;;;;3.83;0.73;;;;;;;31.99;24.19;100039.72;4418274;32;34579;-86
2022/07/14 07:50:10;;;;;;;2.65;1.12;;;;;;;32.10;24.24;100038.31;4395039;32;33586;-85
2022/07/14 07:52:43;;;;;;;1.60;0.70;;;;;;;32.52;24.08;100037.31;4399953;32;33717;-85
2022/07/14 07:55:13;;;;;;;5.57;0.73;;;;;;;33.00;26.35;100028.22;4374330;32;33315;-85
2022/07/14 07:57:54;;;;;;;1.17;0.90;;;;;;;33.42;24.85;100032.47;4389606;32;34050;-85
2022/07/14 08:00:23;;;;;;;1.62;0.90;;;;;;;33.57;23.04;100024.09;4376421;32;33428;-85
2022/07/14 08:02:53;;;;;;;2.83;1.05;;;;;;;33.57;22.35;100027.66;4379384;32;32182;-84
2022/07/14 08:05:26;;;;;;;3.92;0.88;;;;;;;33.84;23.46;100025.72;4365343;32;32901;-84
2022/07/14 08:08:14;;;;;;;1.20;0.77;;;;;;;33.77;23.27;100016.69;4401083;32;32041;-84
2022/07/14 08:10:43;;;;;;;0.90;0.70;;;;;;;33.79;23.78;100017.31;4377917;32;33632;-84
2022/07/14 08:13:12;;;;;;;0.77;0.60;;;;;;;33.75;21.50;100021.53;4388959;32;33352;-85
2022/07/14 08:15:48;;;;;;;0.65;0.50;;;;;;;34.10;21.35;100013.06;4400055;32;31901;-85
2022/07/14 08:20:52;;;;;;;0.68;0.60;;;;;;;34.14;22.45;100009.69;4396849;32;33129;-85
2022/07/14 08:23:20;;;;;;;2.67;0.70;;;;;;;34.03;20.55;100012.25;4394449;32;32705;-85
2022/07/14 08:25:52;;;;;;;1.90;0.70;;;;;;;34.34;21.25;100004.13;4388349;32;34240;-84
2022/07/14 08:28:22;;;;;;;2.00;0.73;;;;;;;34.43;22.47;100004.75;4388066;32;34330;-87
2022/07/14 08:30:56;;;;;;;2.90;0.70;;;;;;;34.71;21.94;100003.59;4391092;32;33618;-87
2022/07/14 08:33:24;;;;;;;3.00;0.77;;;;;;;34.78;21.24;99994.22;4387433;32;34824;-86
2022/07/14 08:35:52;;;;;;;2.72;0.65;;;;;;;34.52;19.99;100003.47;4388420;32;34004;-87
2022/07/14 08:38:20;;;;;;;3.22;0.52;;;;;;;34.68;22.28;99993.87;4381418;32;33074;-86
2022/07/14 08:40:49;;;;;;;2.22;0.80;;;;;;;34.71;21.52;99996.19;4401475;32;33672;-87
2022/07/14 08:43:19;;;;;;;1.23;0.80;;;;;;;34.56;19.54;99990.12;4377168;32;32146;-89
2022/07/14 08:45:49;;;;;;;3.58;0.80;;;;;;;34.83;19.74;99991.66;4392134;32;33545;-87
2022/07/14 08:48:20;;;;;;;3.27;0.60;;;;;;;34.88;19.31;99988.25;4388961;32;33882;-86
2022/07/14 08:50:53;;;;;;;1.48;0.60;;;;;;;34.86;18.29;99983.00;4377880;32;33459;-86
2022/07/14 08:53:24;;;;;;;1.87;1.15;;;;;;;35.31;18.22;99982.91;4403069;32;31645;-86
2022/07/14 08:55:54;;;;;;;2.55;0.60;;;;;;;35.37;18.16;99992.13;4404239;32;35064;-86
2022/07/14 08:58:23;;;;;;;0.90;0.80;;;;;;;35.35;18.83;99984.13;4391199;32;34655;-86
2022/07/14 09:00:53;;;;;;;3.28;0.50;;;;;;;35.56;18.28;99988.44;4406020;32;34308;-86
2022/07/14 09:03:21;;;;;;;1.37;0.65;;;;;;;34.84;19.64;99978.78;4418827;32;31522;-87
2022/07/14 09:06:12;;;;;;;1.10;0.40;;;;;;;35.54;21.30;99970.50;4403445;32;33574;-86
2022/07/14 09:08:58;;;;;;;2.03;0.57;;;;;;;35.89;20.94;99979.84;4398687;32;33269;-86
2022/07/14 09:11:28;;;;;;;0.75;0.43;;;;;;;35.90;19.14;99970.53;4400103;32;33754;-87
2022/07/14 09:14:10;;;;;;;1.23;0.90;;;;;;;35.84;18.45;99968.69;4403188;32;33884;-86
2022/07/14 09:17:20;;;;;;;1.87;0.50;;;;;;;36.27;18.94;99970.53;4405747;32;32860;-86
2022/07/14 09:20:15;;;;;;;4.32;0.52;;;;;;;36.04;17.77;99975.94;4394608;32;33022;-86
2022/07/14 09:22:49;;;;;;;0.77;0.47;;;;;;;36.23;18.38;99968.50;4382830;32;32442;-86
2022/07/14 09:25:18;;;;;;;4.75;0.70;;;;;;;36.29;18.91;99949.16;4413344;32;33131;-86
2022/07/14 09:27:49;;;;;;;0.60;0.57;;;;;;;35.96;19.22;99948.75;4409373;32;32340;-86
2022/07/14 09:30:20;;;;;;;0.57;0.57;;;;;;;36.43;18.17;99951.78;4399339;32;34206;-86
2022/07/14 09:32:52;;;;;;;0.88;0.60;;;;;;;36.51;17.77;99948.69;4387681;32;34012;-86
2022/07/14 09:35:26;;;;;;;1.23;0.50;;;;;;;36.35;17.91;99947.41;4385897;32;32108;-86
2022/07/14 09:37:57;;;;;;;0.50;0.45;;;;;;;35.99;18.31;99940.87;4400831;32;33105;-87
2022/07/14 09:43:05;;;;;;;1.23;0.47;;;;;;;36.13;18.30;99949.78;4414568;32;33430;-88
2022/07/14 09:45:36;;;;;;;1.20;0.60;;;;;;;35.91;17.38;99949.41;4389695;32;32437;-88
2022/07/14 09:48:16;;;;;;;1.50;0.50;;;;;;;36.45;16.95;99949.63;4397832;32;30654;-87
2022/07/14 09:50:49;;;;;;;1.15;0.50;;;;;;;36.25;16.78;99938.84;4398780;32;33875;-87
2022/07/14 09:53:21;;;;;;;2.17;0.65;;;;;;;36.12;18.38;99946.19;4412658;32;33207;-87
2022/07/14 09:58:45;;;;;;;0.70;0.40;;;;;;;36.54;18.71;99927.06;4391145;32;33546;-87
2022/07/14 10:01:16;;;;;;;1.50;0.73;;;;;;;36.99;17.00;99918.38;4393911;32;31433;-86
2022/07/14 10:03:48;;;;;;;2.85;0.50;;;;;;;36.86;17.19;99924.87;4377224;32;32648;-87
2022/07/14 10:06:23;;;;;;;2.05;0.43;;;;;;;36.60;17.22;99925.28;4404867;32;31346;-87
2022/07/14 10:09:06;;;;;;;0.95;0.60;;;;;;;37.18;17.08;99919.09;4404835;32;32771;-87
2022/07/14 10:11:38;;;;;;;0.52;0.52;;;;;;;37.21;16.66;99918.59;4392829;32;33323;-87
2022/07/14 10:14:08;;;;;;;3.33;0.50;;;;;;;37.21;15.82;99920.53;4390289;32;34679;-87
2022/07/14 10:16:37;;;;;;;1.20;0.60;;;;;;;37.09;16.36;99926.88;4396767;32;33063;-87
2022/07/14 10:19:06;;;;;;;1.33;0.60;;;;;;;37.03;16.25;99915.94;4381548;32;32837;-87
2022/07/14 10:21:45;;;;;;;3.83;0.50;;;;;;;37.35;15.96;99906.28;4407578;32;33872;-87
2022/07/14 10:24:14;;;;;;;1.20;0.45;;;;;;;37.02;16.33;99906.88;4394492;32;33454;-87
2022/07/14 10:26:45;;;;;;;1.10;0.57;;;;;;;37.18;16.65;99905.34;4376606;32;34118;-86
2022/07/14 10:29:17;;;;;;;4.57;0.50;;;;;;;37.25;16.24;99900.53;4374031;32;33894;-87
2022/07/14 10:32:06;;;;;;;1.35;0.50;;;;;;;37.20;15.86;99892.16;4377115;32;33399;-87
2022/07/14 10:34:59;;;;;;;1.27;0.50;;;;;;;37.60;16.59;99896.94;4390608;32;30674;-88
2022/07/14 10:37:53;;;;;;;1.08;0.93;;;;;;;37.56;16.51;99884.75;4395239;32;32673;-87
2022/07/14 10:43:28;;;;;;;0.50;0.50;;;;;;;38.11;15.55;99887.03;4404735;32;33958;-87
2022/07/14 10:45:59;;;;;;;0.50;0.50;;;;;;;38.34;15.58;99880.63;4377911;32;34217;-87
2022/07/14 10:48:33;;;;;;;3.80;1.15;;;;;;;37.90;14.22;99880.28;4388242;32;32855;-87
2022/07/14 10:51:15;;;;;;;0.45;0.43;;;;;;;37.72;15.36;99878.50;4399831;32;34684;-87
2022/07/14 10:54:11;;;;;;;0.90;0.47;;;;;;;37.71;14.91;99876.81;4392499;32;32836;-87
2022/07/14 10:57:12;;;;;;;0.57;0.57;;;;;;;37.16;15.08;99871.69;4401251;32;33047;-87
2022/07/14 10:59:48;;;;;;;3.22;0.60;;;;;;;37.51;15.15;99857.06;4411662;32;34207;-87
2022/07/14 11:02:20;;;;;;;0.30;0.30;;;;;;;37.58;15.29;99866.06;4389215;32;35943;-87
2022/07/14 11:05:14;;;;;;;1.23;0.50;;;;;;;37.61;15.90;99860.09;4411767;32;34538;-87
2022/07/14 11:07:51;;;;;;;2.05;0.50;;;;;;;37.64;15.45;99862.31;4392688;32;32612;-87
2022/07/14 11:10:24;;;;;;;3.90;0.50;;;;;;;37.71;15.18;99860.28;4417239;32;33216;-86
2022/07/14 11:13:00;;;;;;;0.52;0.52;;;;;;;38.08;14.47;99857.22;4419670;32;31991;-87
2022/07/14 11:15:41;;;;;;;1.90;1.02;;;;;;;38.50;16.40;99848.63;4414962;32;33720;-87
2022/07/14 11:18:17;;;;;;;4.40;0.65;;;;;;;38.67;14.13;99832.94;4405614;32;33963;-87
2022/07/14 11:20:51;;;;;;;2.08;0.40;;;;;;;38.40;16.40;99836.31;4419751;32;32914;-87
2022/07/14 11:23:24;;;;;;;0.70;0.47;;;;;;;38.44;14.68;99836.66;4417719;32;33659;-87
2022/07/14 11:26:01;;;;;;;3.35;0.80;;;;;;;38.67;15.55;99835.69;4408344;32;33427;-86
2022/07/14 11:28:50;;;;;;;1.02;0.50;;;;;;;38.58;14.64;99826.16;4376234;32;32690;-87
2022/07/14 11:31:22;;;;;;;2.60;0.45;;;;;;;38.48;13.88;99825.97;4410952;32;33708;-87
2022/07/14 11:36:47;;;;;;;4.55;1.15;;;;;;;38.56;14.06;99822.81;4403509;32;33149;-87
2022/07/14 11:39:34;;;;;;;0.40;0.40;;;;;;;38.20;13.52;99824.91;4413734;32;34799;-86
2022/07/14 11:42:12;;;;;;;24.33;1.50;;;;;;;37.77;14.96;99823.47;4418400;32;33448;-87
2022/07/14 11:44:51;;;;;;;6.10;0.70;;;;;;;37.53;15.03;99775.88;4405667;32;33943;-86
2022/07/14 11:47:28;;;;;;;1.33;0.65;;;;;;;37.96;15.31;99817.81;4405862;32;34378;-87
2022/07/14 11:50:00;;;;;;;1.58;0.50;;;;;;;38.19;16.28;99812.19;4405456;32;34010;-87
2022/07/14 11:52:42;;;;;;;1.85;0.50;;;;;;;38.46;14.13;99809.69;4414273;32;32207;-86
2022/07/14 11:55:15;;;;;;;3.67;0.88;;;;;;;38.07;14.16;99817.75;4416899;32;34600;-86
2022/07/14 11:57:52;;;;;;;0.60;0.50;;;;;;;37.89;14.44;99810.53;4378747;32;34132;-86
2022/07/14 12:00:21;;;;;;;0.55;0.45;;;;;;;37.86;14.44;99808.28;4387152;32;33833;-88
2022/07/14 12:02:53;;;;;;;2.03;0.70;;;;;;;37.64;14.87;99807.22;4412049;32;32612;-85
2022/07/14 12:05:26;;;;;;;0.40;0.40;;;;;;;37.73;16.38;99804.94;4389172;32;33658;-86
2022/07/14 12:08:02;;;;;;;0.70;0.50;;;;;;;38.07;14.38;99800.38;4396515;32;34300;-86
2022/07/14 12:10:39;;;;;;;1.83;0.50;;;;;;;37.57;14.46;99803.78;4399748;32;33128;-85
2022/07/14 12:13:09;;;;;;;3.97;0.90;;;;;;;38.18;14.44;99802.25;4387845;32;31013;-85